Pays
Station

 

Conditions  météo  pour  Caernarfon  -  Royaume-Uni    Royaume-Uni

  
8 °C
    
 
 

METAR pour Caernarfon :

EGCK 212250Z AUTO 36005KT 9999 FEW041/// 08/05 Q1035

 

Voici le bulletin pour Caernarfon - Royaume-Uni.
 
Le bulletin a été fait il y a 12 minutes, à 22:50 UTC .
Le vent soufflait à la vitesse de 2.6 mètres par seconde de Nord (360°).
 
La température était de 8 °C, avec un point de rosée à 5 °C.
La pression atmosphérique était de 1035 hPa.
L'humidité relative était de 81.3%.
 
La visibilité globale était de supérieure à 10 kilomètres.
 

 
 
 

Pays :   A   B   C   D   E   F   G   H   I   J   K   L   M   N   O   P   Q   R   S   T   U   V   W   Y   Z

 

Partenaires :  Info Météo avec Met'info
Météo Marine avec MeteoMarine.net
Infos Site  |  Infos Légales  |  Crédits  |  Confidentialité
Contactez-nous  |  Ajouter aux favoris
© 2013-2018 METAR - Tous droits réservés